sensor_id;sensor_type;location;lat;lon;timestamp;temperature;humidity
67572;SHT31;54397;47.506;19.158;2023-09-30T00:02:12;15.61;74.37
67572;SHT31;54397;47.506;19.158;2023-09-30T00:05:39;15.09;75.95
67572;SHT31;54397;47.506;19.158;2023-09-30T00:09:01;15.26;75.61
67572;SHT31;54397;47.506;19.158;2023-09-30T00:12:23;15.35;75.16
67572;SHT31;54397;47.506;19.158;2023-09-30T00:15:45;15.47;75.00
67572;SHT31;54397;47.506;19.158;2023-09-30T00:19:09;15.58;74.54
67572;SHT31;54397;47.506;19.158;2023-09-30T00:22:31;15.64;74.44
67572;SHT31;54397;47.506;19.158;2023-09-30T00:25:55;15.60;74.59
67572;SHT31;54397;47.506;19.158;2023-09-30T00:29:17;15.67;74.01
67572;SHT31;54397;47.506;19.158;2023-09-30T00:32:41;15.64;74.12
67572;SHT31;54397;47.506;19.158;2023-09-30T00:36:10;15.63;74.23
67572;SHT31;54397;47.506;19.158;2023-09-30T00:39:34;15.09;74.91
67572;SHT31;54397;47.506;19.158;2023-09-30T00:42:58;15.05;75.45
67572;SHT31;54397;47.506;19.158;2023-09-30T00:49:53;14.91;76.06
67572;SHT31;54397;47.506;19.158;2023-09-30T00:53:15;15.09;75.06
67572;SHT31;54397;47.506;19.158;2023-09-30T00:56:42;15.26;74.33
67572;SHT31;54397;47.506;19.158;2023-09-30T01:00:05;15.30;74.55
67572;SHT31;54397;47.506;19.158;2023-09-30T01:03:28;15.09;74.99
67572;SHT31;54397;47.506;19.158;2023-09-30T01:06:52;15.23;74.69
67572;SHT31;54397;47.506;19.158;2023-09-30T01:10:14;14.93;75.31
67572;SHT31;54397;47.506;19.158;2023-09-30T01:13:37;15.15;74.96
67572;SHT31;54397;47.506;19.158;2023-09-30T01:17:01;15.25;74.68
67572;SHT31;54397;47.506;19.158;2023-09-30T01:20:23;15.32;74.27
67572;SHT31;54397;47.506;19.158;2023-09-30T01:23:47;15.18;74.63
67572;SHT31;54397;47.506;19.158;2023-09-30T01:27:12;14.98;74.77
67572;SHT31;54397;47.506;19.158;2023-09-30T01:30:38;14.81;75.70
67572;SHT31;54397;47.506;19.158;2023-09-30T01:34:00;14.72;75.45
67572;SHT31;54397;47.506;19.158;2023-09-30T01:37:22;14.82;75.08
67572;SHT31;54397;47.506;19.158;2023-09-30T01:40:43;14.81;75.36
67572;SHT31;54397;47.506;19.158;2023-09-30T01:44:08;14.72;75.65
67572;SHT31;54397;47.506;19.158;2023-09-30T01:47:30;14.79;75.69
67572;SHT31;54397;47.506;19.158;2023-09-30T01:50:52;14.85;75.57
67572;SHT31;54397;47.506;19.158;2023-09-30T01:54:13;14.98;75.72
67572;SHT31;54397;47.506;19.158;2023-09-30T01:57:38;15.08;75.41
67572;SHT31;54397;47.506;19.158;2023-09-30T02:01:06;15.12;74.62
67572;SHT31;54397;47.506;19.158;2023-09-30T02:04:28;15.10;73.91
67572;SHT31;54397;47.506;19.158;2023-09-30T02:07:51;14.88;74.32
67572;SHT31;54397;47.506;19.158;2023-09-30T02:11:13;14.81;74.62
67572;SHT31;54397;47.506;19.158;2023-09-30T02:14:35;14.77;74.78
67572;SHT31;54397;47.506;19.158;2023-09-30T02:17:57;14.70;74.65
67572;SHT31;54397;47.506;19.158;2023-09-30T02:21:19;14.68;74.46
67572;SHT31;54397;47.506;19.158;2023-09-30T02:24:43;14.64;74.74
67572;SHT31;54397;47.506;19.158;2023-09-30T02:28:06;14.64;74.97
67572;SHT31;54397;47.506;19.158;2023-09-30T02:31:28;14.54;74.89
67572;SHT31;54397;47.506;19.158;2023-09-30T02:34:52;14.58;75.20
67572;SHT31;54397;47.506;19.158;2023-09-30T02:38:16;14.57;75.48
67572;SHT31;54397;47.506;19.158;2023-09-30T02:41:42;14.70;75.80
67572;SHT31;54397;47.506;19.158;2023-09-30T02:45:05;14.75;75.65
67572;SHT31;54397;47.506;19.158;2023-09-30T02:48:27;14.75;75.42
67572;SHT31;54397;47.506;19.158;2023-09-30T02:51:49;14.67;75.10
67572;SHT31;54397;47.506;19.158;2023-09-30T02:55:14;14.61;75.30
67572;SHT31;54397;47.506;19.158;2023-09-30T02:58:38;14.65;74.85
67572;SHT31;54397;47.506;19.158;2023-09-30T03:02:02;14.57;74.90
67572;SHT31;54397;47.506;19.158;2023-09-30T03:05:24;14.60;74.86
67572;SHT31;54397;47.506;19.158;2023-09-30T03:08:51;14.56;74.59
67572;SHT31;54397;47.506;19.158;2023-09-30T03:12:16;14.12;75.88
67572;SHT31;54397;47.506;19.158;2023-09-30T03:15:38;14.13;76.53
67572;SHT31;54397;47.506;19.158;2023-09-30T03:19:00;14.23;76.48
67572;SHT31;54397;47.506;19.158;2023-09-30T03:22:23;14.27;76.25
67572;SHT31;54397;47.506;19.158;2023-09-30T03:25:48;14.34;75.98
67572;SHT31;54397;47.506;19.158;2023-09-30T03:29:12;14.40;75.05
67572;SHT31;54397;47.506;19.158;2023-09-30T03:32:39;14.44;74.90
67572;SHT31;54397;47.506;19.158;2023-09-30T03:36:03;14.45;75.09
67572;SHT31;54397;47.506;19.158;2023-09-30T03:39:25;14.30;75.38
67572;SHT31;54397;47.506;19.158;2023-09-30T03:42:49;14.26;75.70
67572;SHT31;54397;47.506;19.158;2023-09-30T03:46:11;14.30;75.85
67572;SHT31;54397;47.506;19.158;2023-09-30T03:49:33;14.36;75.50
67572;SHT31;54397;47.506;19.158;2023-09-30T03:53:02;14.37;75.01
67572;SHT31;54397;47.506;19.158;2023-09-30T03:56:24;14.33;75.21
67572;SHT31;54397;47.506;19.158;2023-09-30T03:59:46;14.23;75.47
67572;SHT31;54397;47.506;19.158;2023-09-30T04:03:13;14.17;75.48
67572;SHT31;54397;47.506;19.158;2023-09-30T04:06:38;13.95;76.16
67572;SHT31;54397;47.506;19.158;2023-09-30T04:10:00;14.01;76.10
67572;SHT31;54397;47.506;19.158;2023-09-30T04:13:22;14.03;76.02
67572;SHT31;54397;47.506;19.158;2023-09-30T04:16:45;14.09;76.05
67572;SHT31;54397;47.506;19.158;2023-09-30T04:20:12;14.14;76.23
67572;SHT31;54397;47.506;19.158;2023-09-30T04:23:38;14.22;75.54
67572;SHT31;54397;47.506;19.158;2023-09-30T04:27:02;14.16;75.38
67572;SHT31;54397;47.506;19.158;2023-09-30T04:30:31;14.20;75.18
67572;SHT31;54397;47.506;19.158;2023-09-30T04:33:56;14.19;75.05
67572;SHT31;54397;47.506;19.158;2023-09-30T04:37:19;14.16;75.60
67572;SHT31;54397;47.506;19.158;2023-09-30T04:40:44;14.09;76.24
67572;SHT31;54397;47.506;19.158;2023-09-30T04:44:06;14.16;76.06
67572;SHT31;54397;47.506;19.158;2023-09-30T04:47:28;14.12;76.20
67572;SHT31;54397;47.506;19.158;2023-09-30T04:50:50;14.16;76.30
67572;SHT31;54397;47.506;19.158;2023-09-30T04:54:12;14.23;76.31
67572;SHT31;54397;47.506;19.158;2023-09-30T04:57:36;14.29;75.95
67572;SHT31;54397;47.506;19.158;2023-09-30T05:00:58;14.27;75.87
67572;SHT31;54397;47.506;19.158;2023-09-30T05:04:23;14.34;75.28
67572;SHT31;54397;47.506;19.158;2023-09-30T05:07:49;14.34;75.25
67572;SHT31;54397;47.506;19.158;2023-09-30T05:11:11;14.44;75.44
67572;SHT31;54397;47.506;19.158;2023-09-30T05:14:33;14.43;75.31
67572;SHT31;54397;47.506;19.158;2023-09-30T05:18:00;14.48;74.72
67572;SHT31;54397;47.506;19.158;2023-09-30T05:21:25;14.44;75.18
67572;SHT31;54397;47.506;19.158;2023-09-30T05:24:48;14.54;75.36
67572;SHT31;54397;47.506;19.158;2023-09-30T05:28:12;14.67;75.26
67572;SHT31;54397;47.506;19.158;2023-09-30T05:31:35;14.65;75.36
67572;SHT31;54397;47.506;19.158;2023-09-30T05:35:02;14.81;75.23
67572;SHT31;54397;47.506;19.158;2023-09-30T05:38:26;14.77;75.38
67572;SHT31;54397;47.506;19.158;2023-09-30T05:41:52;14.99;75.13
67572;SHT31;54397;47.506;19.158;2023-09-30T05:45:16;15.22;74.37
67572;SHT31;54397;47.506;19.158;2023-09-30T05:48:41;15.25;74.30
67572;SHT31;54397;47.506;19.158;2023-09-30T05:52:03;15.42;74.29
67572;SHT31;54397;47.506;19.158;2023-09-30T05:55:28;15.66;73.74
67572;SHT31;54397;47.506;19.158;2023-09-30T05:58:53;15.95;73.27
67572;SHT31;54397;47.506;19.158;2023-09-30T06:02:15;16.19;73.15
67572;SHT31;54397;47.506;19.158;2023-09-30T06:05:40;16.33;73.17
67572;SHT31;54397;47.506;19.158;2023-09-30T06:09:05;16.43;73.11
67572;SHT31;54397;47.506;19.158;2023-09-30T06:12:31;16.60;73.20
67572;SHT31;54397;47.506;19.158;2023-09-30T06:15:55;16.85;72.37
67572;SHT31;54397;47.506;19.158;2023-09-30T06:19:20;17.08;71.63
67572;SHT31;54397;47.506;19.158;2023-09-30T06:22:43;17.39;70.82
67572;SHT31;54397;47.506;19.158;2023-09-30T06:26:06;17.76;70.05
67572;SHT31;54397;47.506;19.158;2023-09-30T06:29:30;18.03;69.30
67572;SHT31;54397;47.506;19.158;2023-09-30T06:32:54;17.87;68.74
67572;SHT31;54397;47.506;19.158;2023-09-30T06:36:18;17.59;69.65
67572;SHT31;54397;47.506;19.158;2023-09-30T06:39:42;17.66;70.16
67572;SHT31;54397;47.506;19.158;2023-09-30T06:43:04;17.77;70.93
67572;SHT31;54397;47.506;19.158;2023-09-30T06:46:26;17.80;70.27
67572;SHT31;54397;47.506;19.158;2023-09-30T06:49:53;18.15;69.90
67572;SHT31;54397;47.506;19.158;2023-09-30T06:53:19;18.37;68.72
67572;SHT31;54397;47.506;19.158;2023-09-30T06:56:42;18.65;68.26
67572;SHT31;54397;47.506;19.158;2023-09-30T07:00:09;18.86;68.11
67572;SHT31;54397;47.506;19.158;2023-09-30T07:03:31;18.97;69.10
67572;SHT31;54397;47.506;19.158;2023-09-30T07:06:54;18.95;67.28
67572;SHT31;54397;47.506;19.158;2023-09-30T07:10:16;18.89;67.64
67572;SHT31;54397;47.506;19.158;2023-09-30T07:13:42;18.70;68.10
67572;SHT31;54397;47.506;19.158;2023-09-30T07:17:06;18.42;68.61
67572;SHT31;54397;47.506;19.158;2023-09-30T07:20:28;18.34;69.09
67572;SHT31;54397;47.506;19.158;2023-09-30T07:23:54;18.51;69.29
67572;SHT31;54397;47.506;19.158;2023-09-30T07:27:18;18.52;69.16
67572;SHT31;54397;47.506;19.158;2023-09-30T07:30:51;18.70;69.57
67572;SHT31;54397;47.506;19.158;2023-09-30T07:34:15;18.90;69.26
67572;SHT31;54397;47.506;19.158;2023-09-30T07:37:37;19.00;69.18
67572;SHT31;54397;47.506;19.158;2023-09-30T07:41:06;19.09;69.28
67572;SHT31;54397;47.506;19.158;2023-09-30T07:44:27;19.26;68.84
67572;SHT31;54397;47.506;19.158;2023-09-30T07:47:49;19.41;68.15
67572;SHT31;54397;47.506;19.158;2023-09-30T07:51:12;19.38;67.05
67572;SHT31;54397;47.506;19.158;2023-09-30T07:54:34;19.50;66.21
67572;SHT31;54397;47.506;19.158;2023-09-30T07:57:59;19.69;66.39
67572;SHT31;54397;47.506;19.158;2023-09-30T08:01:24;19.92;65.28
67572;SHT31;54397;47.506;19.158;2023-09-30T08:04:46;20.00;64.89
67572;SHT31;54397;47.506;19.158;2023-09-30T08:08:09;20.19;65.17
67572;SHT31;54397;47.506;19.158;2023-09-30T08:11:30;20.19;64.49
67572;SHT31;54397;47.506;19.158;2023-09-30T08:14:54;20.36;66.36
67572;SHT31;54397;47.506;19.158;2023-09-30T08:18:19;20.68;65.52
67572;SHT31;54397;47.506;19.158;2023-09-30T08:21:41;21.35;64.21
67572;SHT31;54397;47.506;19.158;2023-09-30T08:25:10;21.85;61.23
67572;SHT31;54397;47.506;19.158;2023-09-30T08:28:34;22.29;59.83
67572;SHT31;54397;47.506;19.158;2023-09-30T08:31:56;22.05;58.43
67572;SHT31;54397;47.506;19.158;2023-09-30T08:35:18;22.06;58.73
67572;SHT31;54397;47.506;19.158;2023-09-30T08:38:42;21.91;57.25
67572;SHT31;54397;47.506;19.158;2023-09-30T08:42:09;21.88;57.60
67572;SHT31;54397;47.506;19.158;2023-09-30T08:45:36;22.01;57.36
67572;SHT31;54397;47.506;19.158;2023-09-30T08:49:04;21.84;57.72
67572;SHT31;54397;47.506;19.158;2023-09-30T08:52:29;21.77;57.89
67572;SHT31;54397;47.506;19.158;2023-09-30T08:55:53;21.74;58.72
67572;SHT31;54397;47.506;19.158;2023-09-30T08:59:18;21.90;57.91
67572;SHT31;54397;47.506;19.158;2023-09-30T09:02:42;22.22;58.83
67572;SHT31;54397;47.506;19.158;2023-09-30T09:06:04;22.69;56.07
67572;SHT31;54397;47.506;19.158;2023-09-30T09:09:29;22.98;55.34
67572;SHT31;54397;47.506;19.158;2023-09-30T09:13:01;23.14;55.60
67572;SHT31;54397;47.506;19.158;2023-09-30T09:16:28;22.63;56.26
67572;SHT31;54397;47.506;19.158;2023-09-30T09:20:01;22.55;56.68
67572;SHT31;54397;47.506;19.158;2023-09-30T09:23:22;22.50;56.17
67572;SHT31;54397;47.506;19.158;2023-09-30T09:26:44;22.61;55.93
67572;SHT31;54397;47.506;19.158;2023-09-30T09:33:40;22.69;56.72
67572;SHT31;54397;47.506;19.158;2023-09-30T09:37:19;22.69;55.70
67572;SHT31;54397;47.506;19.158;2023-09-30T09:40:41;22.63;56.71
67572;SHT31;54397;47.506;19.158;2023-09-30T09:44:04;22.76;56.88
67572;SHT31;54397;47.506;19.158;2023-09-30T09:47:26;22.57;54.67
67572;SHT31;54397;47.506;19.158;2023-09-30T09:50:53;22.42;55.39
67572;SHT31;54397;47.506;19.158;2023-09-30T09:54:16;22.43;56.42
67572;SHT31;54397;47.506;19.158;2023-09-30T09:57:38;22.38;57.04
67572;SHT31;54397;47.506;19.158;2023-09-30T10:01:01;22.29;55.16
67572;SHT31;54397;47.506;19.158;2023-09-30T10:04:24;22.19;55.40
67572;SHT31;54397;47.506;19.158;2023-09-30T10:11:21;22.04;57.12
67572;SHT31;54397;47.506;19.158;2023-09-30T10:14:43;22.01;56.59
67572;SHT31;54397;47.506;19.158;2023-09-30T10:18:10;21.71;57.49
67572;SHT31;54397;47.506;19.158;2023-09-30T10:21:36;21.67;58.38
67572;SHT31;54397;47.506;19.158;2023-09-30T10:25:01;21.74;58.34
67572;SHT31;54397;47.506;19.158;2023-09-30T10:28:43;21.81;57.57
67572;SHT31;54397;47.506;19.158;2023-09-30T10:32:11;21.77;58.66
67572;SHT31;54397;47.506;19.158;2023-09-30T10:38:59;21.97;58.24
67572;SHT31;54397;47.506;19.158;2023-09-30T10:42:48;21.91;57.99
67572;SHT31;54397;47.506;19.158;2023-09-30T10:49:52;21.98;59.08
67572;SHT31;54397;47.506;19.158;2023-09-30T10:53:15;22.01;58.91
67572;SHT31;54397;47.506;19.158;2023-09-30T10:56:36;22.08;59.09
67572;SHT31;54397;47.506;19.158;2023-09-30T11:00:11;22.05;58.80
67572;SHT31;54397;47.506;19.158;2023-09-30T11:03:33;22.05;59.06
67572;SHT31;54397;47.506;19.158;2023-09-30T11:06:55;22.00;59.77
67572;SHT31;54397;47.506;19.158;2023-09-30T11:10:18;21.74;59.34
67572;SHT31;54397;47.506;19.158;2023-09-30T11:13:40;21.57;60.35
67572;SHT31;54397;47.506;19.158;2023-09-30T11:17:04;21.43;60.55
67572;SHT31;54397;47.506;19.158;2023-09-30T11:20:30;21.20;61.22
67572;SHT31;54397;47.506;19.158;2023-09-30T11:23:56;21.23;61.44
67572;SHT31;54397;47.506;19.158;2023-09-30T11:27:23;21.09;61.25
67572;SHT31;54397;47.506;19.158;2023-09-30T11:31:01;20.96;62.33
67572;SHT31;54397;47.506;19.158;2023-09-30T11:34:36;20.79;62.75
67572;SHT31;54397;47.506;19.158;2023-09-30T11:37:59;20.84;62.76
67572;SHT31;54397;47.506;19.158;2023-09-30T11:41:32;20.96;62.67
67572;SHT31;54397;47.506;19.158;2023-09-30T11:44:54;20.70;63.42
67572;SHT31;54397;47.506;19.158;2023-09-30T11:48:19;20.63;63.64
67572;SHT31;54397;47.506;19.158;2023-09-30T11:51:44;20.55;64.11
67572;SHT31;54397;47.506;19.158;2023-09-30T11:55:10;20.44;64.34
67572;SHT31;54397;47.506;19.158;2023-09-30T11:58:34;20.30;65.02
67572;SHT31;54397;47.506;19.158;2023-09-30T12:01:58;20.26;65.33
67572;SHT31;54397;47.506;19.158;2023-09-30T12:05:34;20.22;65.46
67572;SHT31;54397;47.506;19.158;2023-09-30T12:09:00;20.24;65.67
67572;SHT31;54397;47.506;19.158;2023-09-30T12:12:26;20.26;65.95
67572;SHT31;54397;47.506;19.158;2023-09-30T12:15:48;20.31;66.40
67572;SHT31;54397;47.506;19.158;2023-09-30T12:19:09;20.23;67.78
67572;SHT31;54397;47.506;19.158;2023-09-30T12:22:32;20.14;68.99
67572;SHT31;54397;47.506;19.158;2023-09-30T12:25:54;20.08;68.93
67572;SHT31;54397;47.506;19.158;2023-09-30T12:29:36;19.96;69.63
67572;SHT31;54397;47.506;19.158;2023-09-30T12:33:02;19.86;70.05
67572;SHT31;54397;47.506;19.158;2023-09-30T12:36:26;19.97;69.97
67572;SHT31;54397;47.506;19.158;2023-09-30T12:39:52;19.95;69.83
67572;SHT31;54397;47.506;19.158;2023-09-30T12:43:14;19.97;70.22
67572;SHT31;54397;47.506;19.158;2023-09-30T12:46:39;20.12;69.54
67572;SHT31;54397;47.506;19.158;2023-09-30T12:50:06;20.23;69.26
67572;SHT31;54397;47.506;19.158;2023-09-30T12:53:33;20.23;69.38
67572;SHT31;54397;47.506;19.158;2023-09-30T12:56:55;20.14;69.54
67572;SHT31;54397;47.506;19.158;2023-09-30T13:00:21;20.29;69.39
67572;SHT31;54397;47.506;19.158;2023-09-30T13:03:46;20.19;69.76
67572;SHT31;54397;47.506;19.158;2023-09-30T13:07:09;20.23;69.83
67572;SHT31;54397;47.506;19.158;2023-09-30T13:10:34;20.17;70.07
67572;SHT31;54397;47.506;19.158;2023-09-30T13:13:57;20.37;69.64
67572;SHT31;54397;47.506;19.158;2023-09-30T13:17:19;20.36;69.73
67572;SHT31;54397;47.506;19.158;2023-09-30T13:20:41;20.34;69.92
67572;SHT31;54397;47.506;19.158;2023-09-30T13:24:03;20.47;69.52
67572;SHT31;54397;47.506;19.158;2023-09-30T13:27:28;20.55;69.30
67572;SHT31;54397;47.506;19.158;2023-09-30T13:30:50;20.58;69.33
67572;SHT31;54397;47.506;19.158;2023-09-30T13:34:12;20.71;68.88
67572;SHT31;54397;47.506;19.158;2023-09-30T13:37:36;20.75;68.90
67572;SHT31;54397;47.506;19.158;2023-09-30T13:40:58;20.88;69.12
67572;SHT31;54397;47.506;19.158;2023-09-30T13:44:20;20.98;68.94
67572;SHT31;54397;47.506;19.158;2023-09-30T13:47:41;21.13;68.51
67572;SHT31;54397;47.506;19.158;2023-09-30T13:51:07;21.23;68.28
67572;SHT31;54397;47.506;19.158;2023-09-30T13:54:32;21.45;67.76
67572;SHT31;54397;47.506;19.158;2023-09-30T13:57:56;21.71;66.72
67572;SHT31;54397;47.506;19.158;2023-09-30T14:01:18;21.91;66.45
67572;SHT31;54397;47.506;19.158;2023-09-30T14:04:41;21.84;66.51
67572;SHT31;54397;47.506;19.158;2023-09-30T14:08:05;21.97;66.09
67572;SHT31;54397;47.506;19.158;2023-09-30T14:11:29;22.13;65.86
67572;SHT31;54397;47.506;19.158;2023-09-30T14:14:52;22.15;65.59
67572;SHT31;54397;47.506;19.158;2023-09-30T14:18:18;22.12;65.90
67572;SHT31;54397;47.506;19.158;2023-09-30T14:21:41;22.01;66.35
67572;SHT31;54397;47.506;19.158;2023-09-30T14:25:03;21.90;66.58
67572;SHT31;54397;47.506;19.158;2023-09-30T14:28:27;21.83;66.83
67572;SHT31;54397;47.506;19.158;2023-09-30T14:31:49;21.80;66.45
67572;SHT31;54397;47.506;19.158;2023-09-30T14:35:10;21.80;66.72
67572;SHT31;54397;47.506;19.158;2023-09-30T14:38:33;21.92;66.12
67572;SHT31;54397;47.506;19.158;2023-09-30T14:41:54;22.01;66.57
67572;SHT31;54397;47.506;19.158;2023-09-30T14:45:16;22.16;65.70
67572;SHT31;54397;47.506;19.158;2023-09-30T14:48:38;22.00;66.29
67572;SHT31;54397;47.506;19.158;2023-09-30T14:52:01;21.85;66.77
67572;SHT31;54397;47.506;19.158;2023-09-30T14:55:24;22.02;66.76
67572;SHT31;54397;47.506;19.158;2023-09-30T14:58:46;22.16;66.72
67572;SHT31;54397;47.506;19.158;2023-09-30T15:02:08;22.19;66.18
67572;SHT31;54397;47.506;19.158;2023-09-30T15:05:30;22.28;65.97
67572;SHT31;54397;47.506;19.158;2023-09-30T15:08:54;22.29;66.05
67572;SHT31;54397;47.506;19.158;2023-09-30T15:12:21;22.29;66.36
67572;SHT31;54397;47.506;19.158;2023-09-30T15:15:43;22.21;66.74
67572;SHT31;54397;47.506;19.158;2023-09-30T15:19:05;22.08;67.14
67572;SHT31;54397;47.506;19.158;2023-09-30T15:22:27;22.05;67.60
67572;SHT31;54397;47.506;19.158;2023-09-30T15:25:54;22.00;67.28
67572;SHT31;54397;47.506;19.158;2023-09-30T15:29:20;21.94;67.36
67572;SHT31;54397;47.506;19.158;2023-09-30T15:32:44;21.74;67.55
67572;SHT31;54397;47.506;19.158;2023-09-30T15:36:24;21.78;67.65
67572;SHT31;54397;47.506;19.158;2023-09-30T15:39:49;21.78;67.69
67572;SHT31;54397;47.506;19.158;2023-09-30T15:43:11;21.64;68.24
67572;SHT31;54397;47.506;19.158;2023-09-30T15:46:33;21.57;68.53
67572;SHT31;54397;47.506;19.158;2023-09-30T15:49:55;21.50;68.92
67572;SHT31;54397;47.506;19.158;2023-09-30T15:53:17;21.39;68.81
67572;SHT31;54397;47.506;19.158;2023-09-30T15:56:42;21.42;68.92
67572;SHT31;54397;47.506;19.158;2023-09-30T16:00:19;21.30;69.40
67572;SHT31;54397;47.506;19.158;2023-09-30T16:03:41;21.30;69.44
67572;SHT31;54397;47.506;19.158;2023-09-30T16:07:07;21.16;69.97
67572;SHT31;54397;47.506;19.158;2023-09-30T16:10:30;21.25;69.78
67572;SHT31;54397;47.506;19.158;2023-09-30T16:13:53;21.26;69.85
67572;SHT31;54397;47.506;19.158;2023-09-30T16:17:14;21.19;70.25
67572;SHT31;54397;47.506;19.158;2023-09-30T16:20:38;21.06;70.68
67572;SHT31;54397;47.506;19.158;2023-09-30T16:24:00;21.05;70.68
67572;SHT31;54397;47.506;19.158;2023-09-30T16:27:25;21.13;70.55
67572;SHT31;54397;47.506;19.158;2023-09-30T16:30:47;21.15;70.57
67572;SHT31;54397;47.506;19.158;2023-09-30T16:34:09;21.02;71.02
67572;SHT31;54397;47.506;19.158;2023-09-30T16:37:34;20.89;71.41
67572;SHT31;54397;47.506;19.158;2023-09-30T16:40:57;20.91;71.30
67572;SHT31;54397;47.506;19.158;2023-09-30T16:44:19;20.92;71.47
67572;SHT31;54397;47.506;19.158;2023-09-30T16:47:42;20.77;71.93
67572;SHT31;54397;47.506;19.158;2023-09-30T16:51:08;20.78;71.89
67572;SHT31;54397;47.506;19.158;2023-09-30T16:54:31;20.88;71.57
67572;SHT31;54397;47.506;19.158;2023-09-30T16:57:53;20.89;71.58
67572;SHT31;54397;47.506;19.158;2023-09-30T17:01:17;20.94;71.35
67572;SHT31;54397;47.506;19.158;2023-09-30T17:04:43;20.87;71.51
67572;SHT31;54397;47.506;19.158;2023-09-30T17:08:07;20.77;72.00
67572;SHT31;54397;47.506;19.158;2023-09-30T17:11:29;20.77;71.72
67572;SHT31;54397;47.506;19.158;2023-09-30T17:14:56;20.68;72.23
67572;SHT31;54397;47.506;19.158;2023-09-30T17:18:20;20.58;72.41
67572;SHT31;54397;47.506;19.158;2023-09-30T17:21:42;20.57;72.65
67572;SHT31;54397;47.506;19.158;2023-09-30T17:25:04;20.52;72.79
67572;SHT31;54397;47.506;19.158;2023-09-30T17:28:26;20.48;72.92
67572;SHT31;54397;47.506;19.158;2023-09-30T17:31:48;20.44;73.05
67572;SHT31;54397;47.506;19.158;2023-09-30T17:35:15;20.41;73.25
67572;SHT31;54397;47.506;19.158;2023-09-30T17:38:42;20.31;73.48
67572;SHT31;54397;47.506;19.158;2023-09-30T17:42:03;20.26;73.73
67572;SHT31;54397;47.506;19.158;2023-09-30T17:45:28;20.20;73.96
67572;SHT31;54397;47.506;19.158;2023-09-30T17:48:50;20.14;74.11
67572;SHT31;54397;47.506;19.158;2023-09-30T17:52:11;20.10;74.33
67572;SHT31;54397;47.506;19.158;2023-09-30T17:55:37;20.06;74.40
67572;SHT31;54397;47.506;19.158;2023-09-30T17:59:01;20.06;74.46
67572;SHT31;54397;47.506;19.158;2023-09-30T18:02:23;20.14;74.30
67572;SHT31;54397;47.506;19.158;2023-09-30T18:05:45;20.20;74.12
67572;SHT31;54397;47.506;19.158;2023-09-30T18:09:06;20.20;74.13
67572;SHT31;54397;47.506;19.158;2023-09-30T18:12:31;20.22;74.08
67572;SHT31;54397;47.506;19.158;2023-09-30T18:15:54;20.17;74.21
67572;SHT31;54397;47.506;19.158;2023-09-30T18:19:16;20.14;74.42
67572;SHT31;54397;47.506;19.158;2023-09-30T18:22:42;20.06;74.65
67572;SHT31;54397;47.506;19.158;2023-09-30T18:26:08;19.99;74.77
67572;SHT31;54397;47.506;19.158;2023-09-30T18:29:30;20.03;74.77
67572;SHT31;54397;47.506;19.158;2023-09-30T18:32:54;19.95;74.95
67572;SHT31;54397;47.506;19.158;2023-09-30T18:36:19;19.95;75.00
67572;SHT31;54397;47.506;19.158;2023-09-30T18:39:45;19.96;74.77
67572;SHT31;54397;47.506;19.158;2023-09-30T18:43:07;19.86;74.99
67572;SHT31;54397;47.506;19.158;2023-09-30T18:46:34;19.82;75.19
67572;SHT31;54397;47.506;19.158;2023-09-30T18:49:57;19.78;75.24
67572;SHT31;54397;47.506;19.158;2023-09-30T18:53:22;19.71;75.48
67572;SHT31;54397;47.506;19.158;2023-09-30T18:56:44;19.62;75.58
67572;SHT31;54397;47.506;19.158;2023-09-30T19:00:06;19.54;75.96
67572;SHT31;54397;47.506;19.158;2023-09-30T19:03:28;19.50;76.11
67572;SHT31;54397;47.506;19.158;2023-09-30T19:06:52;19.43;76.30
67572;SHT31;54397;47.506;19.158;2023-09-30T19:10:13;19.39;76.48
67572;SHT31;54397;47.506;19.158;2023-09-30T19:13:37;19.39;76.51
67572;SHT31;54397;47.506;19.158;2023-09-30T19:17:01;19.35;76.49
67572;SHT31;54397;47.506;19.158;2023-09-30T19:20:23;19.28;76.63
67572;SHT31;54397;47.506;19.158;2023-09-30T19:23:45;19.24;76.71
67572;SHT31;54397;47.506;19.158;2023-09-30T19:27:09;19.17;76.90
67572;SHT31;54397;47.506;19.158;2023-09-30T19:30:33;19.13;76.76
67572;SHT31;54397;47.506;19.158;2023-09-30T19:33:55;19.09;76.85
67572;SHT31;54397;47.506;19.158;2023-09-30T19:37:17;19.00;76.89
67572;SHT31;54397;47.506;19.158;2023-09-30T19:40:41;18.92;77.07
67572;SHT31;54397;47.506;19.158;2023-09-30T19:44:06;18.90;77.05
67572;SHT31;54397;47.506;19.158;2023-09-30T19:47:30;18.85;76.99
67572;SHT31;54397;47.506;19.158;2023-09-30T19:50:57;18.80;76.89
67572;SHT31;54397;47.506;19.158;2023-09-30T19:54:19;18.76;76.87
67572;SHT31;54397;47.506;19.158;2023-09-30T19:57:40;18.80;76.71
67572;SHT31;54397;47.506;19.158;2023-09-30T20:01:06;18.83;76.38
67572;SHT31;54397;47.506;19.158;2023-09-30T20:04:35;18.83;76.32
67572;SHT31;54397;47.506;19.158;2023-09-30T20:08:02;18.85;76.16
67572;SHT31;54397;47.506;19.158;2023-09-30T20:11:26;18.89;76.04
67572;SHT31;54397;47.506;19.158;2023-09-30T20:14:50;18.89;75.98
67572;SHT31;54397;47.506;19.158;2023-09-30T20:18:16;18.92;75.94
67572;SHT31;54397;47.506;19.158;2023-09-30T20:21:43;18.89;75.91
67572;SHT31;54397;47.506;19.158;2023-09-30T20:25:05;18.93;75.68
67572;SHT31;54397;47.506;19.158;2023-09-30T20:28:29;18.92;75.55
67572;SHT31;54397;47.506;19.158;2023-09-30T20:31:53;18.88;75.48
67572;SHT31;54397;47.506;19.158;2023-09-30T20:35:17;18.83;75.39
67572;SHT31;54397;47.506;19.158;2023-09-30T20:38:43;18.86;75.35
67572;SHT31;54397;47.506;19.158;2023-09-30T20:42:07;18.86;75.26
67572;SHT31;54397;47.506;19.158;2023-09-30T20:45:29;18.86;75.11
67572;SHT31;54397;47.506;19.158;2023-09-30T20:48:53;18.85;75.02
67572;SHT31;54397;47.506;19.158;2023-09-30T20:52:15;18.82;74.28
67572;SHT31;54397;47.506;19.158;2023-09-30T20:55:39;18.83;74.40
67572;SHT31;54397;47.506;19.158;2023-09-30T20:59:04;18.88;74.31
67572;SHT31;54397;47.506;19.158;2023-09-30T21:02:32;18.90;74.06
67572;SHT31;54397;47.506;19.158;2023-09-30T21:05:54;18.86;74.35
67572;SHT31;54397;47.506;19.158;2023-09-30T21:09:16;18.80;74.49
67572;SHT31;54397;47.506;19.158;2023-09-30T21:12:41;18.77;74.53
67572;SHT31;54397;47.506;19.158;2023-09-30T21:16:03;18.76;74.64
67572;SHT31;54397;47.506;19.158;2023-09-30T21:19:30;18.70;74.69
67572;SHT31;54397;47.506;19.158;2023-09-30T21:22:54;18.66;74.99
67572;SHT31;54397;47.506;19.158;2023-09-30T21:26:15;18.62;75.07